KMTJ/MTJ METAR and TAF weather

Enter ICAO airport designator
Station Type Date Time Source
KMTJ METAR 2019/10/23 11:53 UTC NOAA

KMTJ 231153Z AUTO 15005KT 10SM CLR 01/M05 A3019 RMK AO2 SLP195 T00111050 10039 21006 55004


Station Type Date Time Source
KMTJ Decoded METAR 2019/10/23 11:53 UTC NOAA

MONTROSE REGIONAL AIRPORT, CO, United States (KMTJ) 38-30N 107-54W 1750M
Oct 23, 2019 - 07:53 AM EDT / 2019.10.23 1153 UTC
Wind: from the SSE (150 degrees) at 6 MPH (5 KT):0
Visibility: 10 mile(s):0
Sky conditions: clear
Temperature: 34.0 F (1.1 C)
Windchill: 28 F (-2 C):1
Dew Point: 23.0 F (-5.0 C)
Relative Humidity: 63%
Pressure (altimeter): 30.19 in. Hg (1022 hPa)
Pressure tendency: 0.01 inches (0.4 hPa) lower than three hours ago
ob: KMTJ 231153Z AUTO 15005KT 10SM CLR 01/M05 A3019 RMK AO2 SLP195 T00111050 10039 21006 55004
cycle: 12

Station Type Date Time Source
KMTJ TAF 2019/10/23 12:33 UTC NOAA

TAF KMTJ 231130Z 2312/2412 16008KT P6SM BKN200
FM231600 VRB03KT P6SM FEW100 SCT250
FM231900 31010KT P6SM FEW100 SCT250
FM240300 28006KT P6SM FEW070 SCT200
FM240500 14006KT P6SM OVC250

Example: see airport list